createdAt,value
2022-12-04T00:01:21.297Z,101416.13
2022-12-04T00:03:48.563Z,101408.88
2022-12-04T00:06:18.782Z,101416.28
2022-12-04T00:08:47.174Z,101419.94
2022-12-04T00:11:18.672Z,101421.66
2022-12-04T00:13:45.880Z,101413.09
2022-12-04T00:16:32.005Z,101418.84
2022-12-04T00:18:59.011Z,101412.00
2022-12-04T00:21:26.495Z,101414.72
2022-12-04T00:23:54.485Z,101416.88
2022-12-04T00:26:24.925Z,101411.09
2022-12-04T00:28:53.152Z,101406.22
2022-12-04T00:31:25.371Z,101412.22
2022-12-04T00:33:53.452Z,101406.03
2022-12-04T00:36:24.603Z,101407.22
2022-12-04T00:38:51.883Z,101397.69
2022-12-04T00:41:25.837Z,101400.63
2022-12-04T00:43:53.165Z,101394.84
2022-12-04T00:46:21.119Z,101390.75
2022-12-04T00:48:48.415Z,101394.25
2022-12-04T00:51:24.378Z,101392.25
2022-12-04T00:53:53.241Z,101394.84
2022-12-04T00:56:24.918Z,101395.22
2022-12-04T00:58:54.414Z,101390.00
2022-12-04T01:01:22.534Z,101399.69
2022-12-04T01:03:50.115Z,101398.47
2022-12-04T01:06:30.578Z,101397.38
2022-12-04T01:08:59.276Z,101392.94
2022-12-04T01:11:28.703Z,101409.97
2022-12-04T01:13:57.006Z,101405.47
2022-12-04T01:16:29.219Z,101409.03
2022-12-04T01:18:56.775Z,101420.78
2022-12-04T01:21:24.268Z,101420.88
2022-12-04T01:23:51.502Z,101420.16
2022-12-04T01:26:18.447Z,101419.50
2022-12-04T01:28:45.379Z,101418.88
2022-12-04T01:31:15.548Z,101420.72
2022-12-04T01:33:43.253Z,101417.88
2022-12-04T01:36:15.081Z,101430.28
2022-12-04T01:38:42.793Z,101430.94
2022-12-04T01:41:18.930Z,101427.44
2022-12-04T01:43:45.844Z,101425.44
2022-12-04T01:46:12.934Z,101419.34
2022-12-04T01:48:52.407Z,101420.78
2022-12-04T01:51:28.284Z,101422.69
2022-12-04T01:53:59.587Z,101414.91
2022-12-04T01:56:46.759Z,101400.28
2022-12-04T01:59:17.669Z,101397.16
2022-12-04T02:01:56.365Z,101393.94
2022-12-04T02:04:23.473Z,101389.25
2022-12-04T02:06:50.425Z,101381.03
2022-12-04T02:09:23.052Z,101383.19
2022-12-04T02:12:32.854Z,101388.19
2022-12-04T02:15:36.662Z,101378.97
2022-12-04T02:18:35.445Z,101371.66
2022-12-04T02:21:14.742Z,101375.69
2022-12-04T02:23:50.473Z,101376.72
2022-12-04T02:27:03.956Z,101378.66
2022-12-04T02:29:44.291Z,101386.69
2022-12-04T02:32:39.749Z,101390.56
2022-12-04T02:35:25.988Z,101390.22
2022-12-04T02:38:06.732Z,101388.44
2022-12-04T02:41:17.276Z,101379.47
2022-12-04T02:43:59.093Z,101388.63
2022-12-04T02:46:39.737Z,101379.88
2022-12-04T02:49:20.083Z,101378.47
2022-12-04T02:51:49.068Z,101378.22
2022-12-04T02:54:35.240Z,101373.69
2022-12-04T02:57:05.999Z,101374.66
2022-12-04T02:59:42.241Z,101369.91
2022-12-04T03:02:18.621Z,101367.75
2022-12-04T03:04:46.878Z,101372.69
2022-12-04T03:07:19.226Z,101370.22
2022-12-04T03:09:52.638Z,101369.31
2022-12-04T03:12:34.530Z,101375.22
2022-12-04T03:15:10.696Z,101365.00
2022-12-04T03:17:56.779Z,101360.53
2022-12-04T03:20:24.545Z,101359.94
2022-12-04T03:22:59.962Z,101369.00
2022-12-04T03:25:36.088Z,101366.66
2022-12-04T03:28:24.032Z,101367.16
2022-12-04T03:30:59.856Z,101366.25
2022-12-04T03:33:38.731Z,101364.50
2022-12-04T03:36:28.460Z,101372.47
2022-12-04T03:39:23.479Z,101373.69
2022-12-04T03:42:15.961Z,101379.47
2022-12-04T03:45:22.277Z,101370.22
2022-12-04T03:48:04.462Z,101384.25
2022-12-04T03:50:41.978Z,101388.19
2022-12-04T03:53:23.102Z,101382.06
2022-12-04T03:55:58.737Z,101386.47
2022-12-04T03:58:31.264Z,101382.88
2022-12-04T04:01:01.110Z,101381.31
2022-12-04T04:03:38.541Z,101373.56
2022-12-04T04:06:22.360Z,101375.78
2022-12-04T04:08:56.034Z,101368.97
2022-12-04T04:11:35.445Z,101368.28
2022-12-04T04:14:32.997Z,101374.81
2022-12-04T04:17:25.231Z,101378.69
2022-12-04T04:20:23.006Z,101375.00
2022-12-04T04:23:12.505Z,101372.84
2022-12-04T04:25:42.422Z,101370.06
2022-12-04T04:28:36.868Z,101373.72
2022-12-04T04:31:47.512Z,101382.88
2022-12-04T04:34:32.867Z,101379.06
2022-12-04T04:37:42.558Z,101375.63
2022-12-04T04:40:37.481Z,101380.72
2022-12-04T04:43:22.397Z,101376.25
2022-12-04T04:45:59.276Z,101374.59
2022-12-04T04:48:41.131Z,101370.09
2022-12-04T04:51:09.547Z,101375.78
2022-12-04T04:53:48.108Z,101365.22
2022-12-04T04:56:15.938Z,101364.56
2022-12-04T04:58:43.615Z,101361.50
2022-12-04T05:01:23.890Z,101373.00
2022-12-04T05:03:50.967Z,101363.66
2022-12-04T05:06:18.543Z,101361.75
2022-12-04T05:08:46.323Z,101361.84
2022-12-04T05:11:15.658Z,101362.97
2022-12-04T05:13:43.186Z,101360.28
2022-12-04T05:16:15.670Z,101361.94
2022-12-04T05:19:06.176Z,101366.28
2022-12-04T05:21:34.087Z,101368.47
2022-12-04T05:24:03.174Z,101363.06
2022-12-04T05:26:30.340Z,101361.75
2022-12-04T05:28:57.257Z,101354.25
2022-12-04T05:31:24.205Z,101357.06
2022-12-04T05:33:51.146Z,101352.34
2022-12-04T05:36:18.048Z,101354.59
2022-12-04T05:38:45.026Z,101355.44
2022-12-04T05:41:12.005Z,101355.09
2022-12-04T05:43:38.919Z,101344.94
2022-12-04T05:46:08.202Z,101345.84
2022-12-04T05:48:35.964Z,101356.91
2022-12-04T05:51:10.152Z,101354.00
2022-12-04T05:53:38.158Z,101350.66
2022-12-04T05:56:07.389Z,101346.44
2022-12-04T05:58:36.745Z,101343.28
2022-12-04T06:01:19.673Z,101351.66
2022-12-04T06:03:46.898Z,101343.31
2022-12-04T06:06:21.890Z,101346.81
2022-12-04T06:08:56.811Z,101343.53
2022-12-04T06:11:29.573Z,101348.47
2022-12-04T06:13:57.437Z,101346.81
2022-12-04T06:16:27.904Z,101335.22
2022-12-04T06:18:58.369Z,101353.22
2022-12-04T06:21:28.014Z,101344.03
2022-12-04T06:23:56.076Z,101345.84
2022-12-04T06:26:24.902Z,101354.75
2022-12-04T06:28:57.506Z,101343.66
2022-12-04T06:31:27.586Z,101346.06
2022-12-04T06:33:56.225Z,101359.88
2022-12-04T06:36:24.126Z,101355.19
2022-12-04T06:38:52.601Z,101351.44
2022-12-04T06:41:21.264Z,101351.66
2022-12-04T06:43:48.958Z,101345.66
2022-12-04T06:46:20.047Z,101357.97
2022-12-04T06:48:47.666Z,101354.81
2022-12-04T06:51:27.490Z,101354.38
2022-12-04T06:53:54.769Z,101354.88
2022-12-04T06:56:26.087Z,101344.69
2022-12-04T06:58:56.168Z,101343.31
2022-12-04T07:01:29.295Z,101360.19
2022-12-04T07:03:57.421Z,101352.41
2022-12-04T07:06:31.352Z,101356.38
2022-12-04T07:09:16.469Z,101358.97
2022-12-04T07:11:45.287Z,101350.72
2022-12-04T07:14:13.801Z,101353.94
2022-12-04T07:16:42.651Z,101358.50
2022-12-04T07:19:12.865Z,101359.97
2022-12-04T07:21:40.348Z,101349.69
2022-12-04T07:24:07.556Z,101358.09
2022-12-04T07:26:34.533Z,101360.09
2022-12-04T07:29:01.524Z,101369.44
2022-12-04T07:31:29.966Z,101363.72
2022-12-04T07:33:58.148Z,101375.81
2022-12-04T07:36:27.292Z,101374.75
2022-12-04T07:38:56.491Z,101378.06
2022-12-04T07:41:24.134Z,101385.78
2022-12-04T07:43:51.196Z,101386.75
2022-12-04T07:46:22.577Z,101379.16
2022-12-04T07:48:49.561Z,101378.81
2022-12-04T07:51:21.261Z,101388.88
2022-12-04T07:53:49.896Z,101401.34
2022-12-04T07:56:17.714Z,101404.69
2022-12-04T07:58:45.426Z,101405.94
2022-12-04T08:01:19.267Z,101407.63
2022-12-04T08:03:49.527Z,101407.59
2022-12-04T08:06:22.424Z,101404.72
2022-12-04T08:08:50.172Z,101407.84
2022-12-04T08:11:22.294Z,101398.72
2022-12-04T08:13:55.177Z,101400.34
2022-12-04T08:16:22.540Z,101400.69
2022-12-04T08:18:49.500Z,101403.13
2022-12-04T08:21:21.052Z,101396.94
2022-12-04T08:23:50.637Z,101405.94
2022-12-04T08:26:19.764Z,101402.16
2022-12-04T08:28:46.793Z,101391.16
2022-12-04T08:31:20.883Z,101392.53
2022-12-04T08:33:50.848Z,101400.25
2022-12-04T08:36:20.627Z,101397.41
2022-12-04T08:38:48.730Z,101388.78
2022-12-04T08:41:19.267Z,101375.59
2022-12-04T08:43:46.182Z,101380.09
2022-12-04T08:46:16.767Z,101386.28
2022-12-04T08:48:45.069Z,101384.88
2022-12-04T08:51:18.573Z,101385.03
2022-12-04T08:53:45.898Z,101389.78
2022-12-04T08:56:13.405Z,101404.28
2022-12-04T08:58:40.696Z,101388.19
2022-12-04T09:01:11.071Z,101382.63
2022-12-04T09:03:38.153Z,101393.84
2022-12-04T09:06:06.397Z,101386.41
2022-12-04T09:08:34.952Z,101392.19
2022-12-04T09:11:16.805Z,101391.59
2022-12-04T09:13:44.754Z,101394.81
2022-12-04T09:16:20.536Z,101388.75
2022-12-04T09:18:47.946Z,101389.69
2022-12-04T09:21:17.196Z,101388.00
2022-12-04T09:23:44.841Z,101399.97
2022-12-04T09:26:28.496Z,101405.88
2022-12-04T09:28:56.697Z,101390.31
2022-12-04T09:31:24.687Z,101397.31
2022-12-04T09:33:51.910Z,101401.47
2022-12-04T09:36:19.200Z,101391.03
2022-12-04T09:38:49.245Z,101390.53
2022-12-04T09:41:56.761Z,101394.47
2022-12-04T09:44:40.927Z,101407.13
2022-12-04T09:47:33.079Z,101405.44
2022-12-04T09:50:21.350Z,101405.22
2022-12-04T09:53:03.924Z,101405.66
2022-12-04T09:55:38.963Z,101408.91
2022-12-04T09:58:13.180Z,101405.22
2022-12-04T10:00:44.836Z,101414.22
2022-12-04T10:03:18.900Z,101409.69
2022-12-04T10:06:14.512Z,101407.25
2022-12-04T10:08:45.477Z,101407.25
2022-12-04T10:11:42.300Z,101406.50
2022-12-04T10:14:28.504Z,101405.69
2022-12-04T10:17:32.630Z,101401.66
2022-12-04T10:20:43.607Z,101404.69
2022-12-04T10:23:19.341Z,101402.78
2022-12-04T10:25:47.035Z,101401.88
2022-12-04T10:28:39.007Z,101402.22
2022-12-04T10:31:14.789Z,101400.97
2022-12-04T10:34:12.825Z,101417.66
2022-12-04T10:36:41.863Z,101402.16
2022-12-04T10:39:35.415Z,101411.38
2022-12-04T10:42:25.349Z,101415.31
2022-12-04T10:44:53.236Z,101403.19
2022-12-04T10:47:22.236Z,101396.88
2022-12-04T10:49:49.838Z,101396.56
2022-12-04T10:52:16.774Z,101402.94
2022-12-04T10:54:51.517Z,101403.56
2022-12-04T10:57:18.553Z,101399.34
2022-12-04T10:59:54.060Z,101396.94
2022-12-04T11:02:28.224Z,101385.75
2022-12-04T11:05:26.785Z,101387.44
2022-12-04T11:07:54.936Z,101379.50
2022-12-04T11:10:41.847Z,101390.44
2022-12-04T11:13:14.725Z,101386.13
2022-12-04T11:15:49.800Z,101380.66
2022-12-04T11:18:25.676Z,101372.97
2022-12-04T11:21:06.245Z,101387.31
2022-12-04T11:23:42.608Z,101385.94
2022-12-04T11:26:10.302Z,101379.25
2022-12-04T11:28:42.482Z,101379.09
2022-12-04T11:31:17.117Z,101371.38
2022-12-04T11:33:49.856Z,101376.06
2022-12-04T11:36:34.782Z,101379.13
2022-12-04T11:39:13.216Z,101376.38
2022-12-04T11:41:40.475Z,101367.50
2022-12-04T11:44:24.467Z,101373.94
2022-12-04T11:46:57.836Z,101366.41
2022-12-04T11:49:26.926Z,101366.88
2022-12-04T11:52:27.587Z,101357.41
2022-12-04T11:54:57.149Z,101366.50
2022-12-04T11:57:54.148Z,101353.25
2022-12-04T12:00:23.190Z,101351.13
2022-12-04T12:03:17.863Z,101340.97
2022-12-04T12:06:06.320Z,101332.94
2022-12-04T12:08:54.599Z,101334.31
2022-12-04T12:11:49.963Z,101341.97
2022-12-04T12:14:42.007Z,101329.47
2022-12-04T12:17:25.479Z,101335.94
2022-12-04T12:20:15.513Z,101333.25
2022-12-04T12:23:16.157Z,101323.22
2022-12-04T12:26:15.540Z,101330.50
2022-12-04T12:29:25.301Z,101332.50
2022-12-04T12:32:13.755Z,101325.44
2022-12-04T12:34:44.432Z,101329.97
2022-12-04T12:37:41.882Z,101326.78
2022-12-04T12:40:43.516Z,101317.91
2022-12-04T12:43:24.873Z,101327.09
2022-12-04T12:46:12.443Z,101314.06
2022-12-04T12:49:11.635Z,101316.66
2022-12-04T12:52:14.938Z,101313.44
2022-12-04T12:54:51.802Z,101304.22
2022-12-04T12:57:24.978Z,101301.00
2022-12-04T13:00:13.177Z,101305.00
2022-12-04T13:02:58.399Z,101298.59
2022-12-04T13:05:34.203Z,101292.47
2022-12-04T13:08:24.838Z,101300.84
2022-12-04T13:11:13.578Z,101290.38
2022-12-04T13:13:54.596Z,101285.75
2022-12-04T13:16:39.600Z,101291.00
2022-12-04T13:19:17.041Z,101286.88
2022-12-04T13:21:54.339Z,101298.19
2022-12-04T13:24:55.369Z,101299.38
2022-12-04T13:28:14.174Z,101309.06
2022-12-04T13:31:21.425Z,101305.59
2022-12-04T13:34:07.013Z,101299.84
2022-12-04T13:36:42.996Z,101315.91
2022-12-04T13:39:35.426Z,101316.06
2022-12-04T13:42:06.195Z,101310.09
2022-12-04T13:44:35.479Z,101320.81
2022-12-04T13:47:06.943Z,101322.81
2022-12-04T13:49:42.102Z,101320.78
2022-12-04T13:52:42.024Z,101328.19
2022-12-04T13:55:23.329Z,101324.16
2022-12-04T13:57:57.560Z,101324.59
2022-12-04T14:00:31.497Z,101320.72
2022-12-04T14:03:04.564Z,101324.66
2022-12-04T14:05:42.227Z,101320.81
2022-12-04T14:08:28.969Z,101329.63
2022-12-04T14:11:05.850Z,101333.63
2022-12-04T14:13:49.177Z,101333.25
2022-12-04T14:16:22.639Z,101331.03
2022-12-04T14:19:02.396Z,101332.97
2022-12-04T14:21:47.488Z,101340.03
2022-12-04T14:24:37.814Z,101329.09
2022-12-04T14:27:42.846Z,101328.38
2022-12-04T14:30:25.335Z,101333.09
2022-12-04T14:34:09.526Z,101328.13
2022-12-04T14:36:45.863Z,101333.50
2022-12-04T14:39:46.891Z,101336.84
2022-12-04T14:42:17.258Z,101339.81
2022-12-04T14:44:55.150Z,101343.94
2022-12-04T14:48:07.912Z,101348.69
2022-12-04T14:50:50.401Z,101350.44
2022-12-04T14:53:45.828Z,101358.22
2022-12-04T14:56:59.365Z,101360.94
2022-12-04T14:59:42.088Z,101359.31
2022-12-04T15:02:16.032Z,101361.88
2022-12-04T15:04:45.911Z,101364.81
2022-12-04T15:07:30.180Z,101350.91
2022-12-04T15:10:19.640Z,101352.06
2022-12-04T15:12:54.523Z,101364.00
2022-12-04T15:15:25.916Z,101349.84
2022-12-04T15:18:14.938Z,101345.28
2022-12-04T15:20:56.231Z,101348.97
2022-12-04T15:23:29.023Z,101344.56
2022-12-04T15:25:59.784Z,101339.09
2022-12-04T15:28:35.971Z,101350.34
2022-12-04T15:31:06.340Z,101368.03
2022-12-04T15:33:37.245Z,101369.47
2022-12-04T15:36:17.094Z,101377.41
2022-12-04T15:38:44.369Z,101378.72
2022-12-04T15:41:37.484Z,101375.38
2022-12-04T15:44:29.439Z,101381.19
2022-12-04T15:47:01.105Z,101376.78
2022-12-04T15:49:33.157Z,101379.88
2022-12-04T15:52:23.810Z,101381.56
2022-12-04T15:54:58.093Z,101381.19
2022-12-04T15:57:40.121Z,101379.03
2022-12-04T16:00:25.130Z,101384.75
2022-12-04T16:02:52.316Z,101400.91
2022-12-04T16:05:22.216Z,101393.75
2022-12-04T16:07:57.388Z,101396.53
2022-12-04T16:10:32.022Z,101408.53
2022-12-04T16:13:02.838Z,101397.66
2022-12-04T16:15:47.957Z,101397.25
2022-12-04T16:18:15.033Z,101389.72
2022-12-04T16:20:42.054Z,101394.09
2022-12-04T16:23:09.946Z,101394.69
2022-12-04T16:25:37.112Z,101389.09
2022-12-04T16:28:04.288Z,101395.94
2022-12-04T16:30:34.148Z,101393.13
2022-12-04T16:33:01.051Z,101388.66
2022-12-04T16:35:30.464Z,101382.72
2022-12-04T16:37:57.556Z,101387.00
2022-12-04T16:40:24.496Z,101381.41
2022-12-04T16:42:51.422Z,101386.88
2022-12-04T16:45:31.189Z,101377.88
2022-12-04T16:47:58.433Z,101381.97
2022-12-04T16:50:27.131Z,101388.31
2022-12-04T16:52:54.892Z,101379.72
2022-12-04T16:55:28.228Z,101387.59
2022-12-04T16:57:55.288Z,101385.28
2022-12-04T17:00:22.227Z,101383.78
2022-12-04T17:02:49.186Z,101397.41
2022-12-04T17:05:23.365Z,101393.84
2022-12-04T17:07:50.871Z,101391.00
2022-12-04T17:10:23.583Z,101401.09
2022-12-04T17:12:53.581Z,101389.22
2022-12-04T17:15:21.553Z,101400.38
2022-12-04T17:17:48.540Z,101406.06
2022-12-04T17:20:22.851Z,101409.97
2022-12-04T17:22:50.258Z,101403.94
2022-12-04T17:25:18.331Z,101403.34
2022-12-04T17:27:46.217Z,101409.88
2022-12-04T17:30:14.419Z,101417.66
2022-12-04T17:32:41.415Z,101412.03
2022-12-04T17:35:11.876Z,101414.81
2022-12-04T17:37:38.852Z,101415.88
2022-12-04T17:40:07.608Z,101413.25
2022-12-04T17:42:34.529Z,101411.88
2022-12-04T17:45:01.488Z,101416.50
2022-12-04T17:47:28.882Z,101416.75
2022-12-04T17:49:55.808Z,101419.94
2022-12-04T17:52:22.874Z,101420.78
2022-12-04T17:54:52.646Z,101406.06
2022-12-04T17:57:19.817Z,101425.06
2022-12-04T17:59:46.755Z,101420.03
2022-12-04T18:02:13.999Z,101421.38
2022-12-04T18:04:41.676Z,101423.13
2022-12-04T18:07:09.381Z,101430.63
2022-12-04T18:09:37.170Z,101427.78
2022-12-04T18:12:04.229Z,101424.81
2022-12-04T18:14:32.517Z,101432.13
2022-12-04T18:16:59.703Z,101438.91
2022-12-04T18:19:29.121Z,101430.34
2022-12-04T18:21:57.178Z,101439.81
2022-12-04T18:24:26.290Z,101431.16
2022-12-04T18:26:53.374Z,101435.91
2022-12-04T18:29:25.033Z,101445.22
2022-12-04T18:31:52.874Z,101443.53
2022-12-04T18:34:20.992Z,101454.31
2022-12-04T18:36:49.030Z,101459.50
2022-12-04T18:39:21.000Z,101456.09
2022-12-04T18:41:48.869Z,101455.50
2022-12-04T18:44:17.402Z,101455.41
2022-12-04T18:46:44.475Z,101457.06
2022-12-04T18:49:12.126Z,101441.09
2022-12-04T18:51:45.817Z,101447.81
2022-12-04T18:54:24.122Z,101460.00
2022-12-04T18:56:51.701Z,101462.25
2022-12-04T18:59:27.162Z,101467.81
2022-12-04T19:01:55.002Z,101463.06
2022-12-04T19:04:23.947Z,101468.16
2022-12-04T19:06:54.869Z,101462.00
2022-12-04T19:09:47.220Z,101454.78
2022-12-04T19:12:13.379Z,101473.03
2022-12-04T19:14:40.543Z,101465.13
2022-12-04T19:17:09.293Z,101469.59
2022-12-04T19:19:36.397Z,101475.88
2022-12-04T19:22:03.946Z,101473.25
2022-12-04T19:24:31.034Z,101476.13
2022-12-04T19:26:58.049Z,101471.97
2022-12-04T19:29:24.944Z,101473.53
2022-12-04T19:31:57.561Z,101477.41
2022-12-04T19:34:26.019Z,101473.69
2022-12-04T19:36:54.730Z,101474.47
2022-12-04T19:39:21.655Z,101476.00
2022-12-04T19:41:48.729Z,101478.38
2022-12-04T19:44:47.303Z,101477.28
2022-12-04T19:47:03.052Z,101480.94
2022-12-04T19:49:30.045Z,101479.78
2022-12-04T19:51:56.977Z,101474.69
2022-12-04T19:54:24.649Z,101478.16
2022-12-04T19:56:52.631Z,101481.13
2022-12-04T19:59:20.621Z,101484.66
2022-12-04T20:01:48.437Z,101485.22
2022-12-04T20:04:15.710Z,101486.75
2022-12-04T20:06:46.059Z,101487.38
2022-12-04T20:09:18.196Z,101486.31
2022-12-04T20:11:45.221Z,101491.41
2022-12-04T20:14:12.375Z,101487.25
2022-12-04T20:16:40.852Z,101486.56
2022-12-04T20:19:13.574Z,101482.88
2022-12-04T20:21:40.826Z,101481.72
2022-12-04T20:24:08.442Z,101477.78
2022-12-04T20:26:39.327Z,101480.03
2022-12-04T20:29:10.059Z,101484.31
2022-12-04T20:31:40.560Z,101484.91
2022-12-04T20:34:13.193Z,101490.47
2022-12-04T20:36:43.292Z,101474.09
2022-12-04T20:39:12.626Z,101484.75
2022-12-04T20:41:40.611Z,101489.28
2022-12-04T20:44:12.772Z,101477.97
2022-12-04T20:46:40.786Z,101480.03
2022-12-04T20:49:15.832Z,101485.22
2022-12-04T20:51:47.947Z,101488.66
2022-12-04T20:54:18.622Z,101486.06
2022-12-04T20:56:48.611Z,101499.00
2022-12-04T20:59:18.307Z,101494.34
2022-12-04T21:01:46.202Z,101495.53
2022-12-04T21:04:13.399Z,101491.16
2022-12-04T21:06:41.445Z,101485.47
2022-12-04T21:09:14.148Z,101489.03
2022-12-04T21:11:48.421Z,101503.09
2022-12-04T21:14:46.224Z,101493.34
2022-12-04T21:17:18.780Z,101492.72
2022-12-04T21:19:48.195Z,101497.06
2022-12-04T21:22:16.721Z,101502.66
2022-12-04T21:24:43.873Z,101492.44
2022-12-04T21:27:15.854Z,101492.34
2022-12-04T21:29:48.213Z,101498.09
2022-12-04T21:32:15.172Z,101491.28
2022-12-04T21:34:42.336Z,101493.88
2022-12-04T21:37:09.499Z,101486.03
2022-12-04T21:39:37.003Z,101488.16
2022-12-04T21:42:22.938Z,101482.66
2022-12-04T21:44:49.824Z,101487.56
2022-12-04T21:47:16.720Z,101484.63
2022-12-04T21:49:43.648Z,101490.31
2022-12-04T21:52:10.534Z,101489.16
2022-12-04T21:54:37.454Z,101487.47
2022-12-04T21:57:04.387Z,101480.97
2022-12-04T21:59:31.327Z,101489.50
2022-12-04T22:01:58.480Z,101484.03
2022-12-04T22:04:25.541Z,101485.47
2022-12-04T22:06:52.563Z,101486.75
2022-12-04T22:09:19.656Z,101493.41
2022-12-04T22:11:46.627Z,101493.06
2022-12-04T22:14:13.904Z,101493.41
2022-12-04T22:16:43.412Z,101485.88
2022-12-04T22:19:12.247Z,101486.94
2022-12-04T22:21:40.010Z,101488.00
2022-12-04T22:24:07.974Z,101483.13
2022-12-04T22:26:34.978Z,101494.53
2022-12-04T22:29:11.232Z,101499.75
2022-12-04T22:31:49.440Z,101498.66
2022-12-04T22:34:16.383Z,101489.66
2022-12-04T22:36:43.464Z,101494.56
2022-12-04T22:39:11.159Z,101498.50
2022-12-04T22:41:38.763Z,101491.44
2022-12-04T22:44:06.612Z,101496.41
2022-12-04T22:46:34.244Z,101488.41
2022-12-04T22:49:01.309Z,101499.44
2022-12-04T22:51:28.991Z,101495.31
2022-12-04T22:53:57.937Z,101500.97
2022-12-04T22:56:31.016Z,101496.47
2022-12-04T22:58:59.725Z,101489.47
2022-12-04T23:01:32.857Z,101493.28
2022-12-04T23:04:03.581Z,101502.88
2022-12-04T23:06:33.982Z,101493.88
2022-12-04T23:09:11.874Z,101495.47
2022-12-04T23:11:39.313Z,101498.28
2022-12-04T23:14:08.654Z,101494.34
2022-12-04T23:16:38.007Z,101495.06
2022-12-04T23:19:07.438Z,101502.28
2022-12-04T23:21:35.131Z,101496.09
2022-12-04T23:24:02.634Z,101495.53
2022-12-04T23:26:40.221Z,101493.16
2022-12-04T23:29:23.265Z,101501.72
2022-12-04T23:31:54.553Z,101498.97
2022-12-04T23:34:21.552Z,101491.41
2022-12-04T23:36:48.481Z,101499.06
2022-12-04T23:39:15.404Z,101491.53
2022-12-04T23:41:42.324Z,101498.72
2022-12-04T23:44:09.214Z,101497.66
2022-12-04T23:46:36.463Z,101509.66
2022-12-04T23:49:03.589Z,101503.56
2022-12-04T23:51:30.660Z,101511.31
2022-12-04T23:53:57.602Z,101518.34
2022-12-04T23:56:27.642Z,101508.59
2022-12-04T23:58:57.285Z,101512.50
